Time;durP1;ratioP1;P1;durP2;ratioP2;P2;SDS_P1;SDS_P2;PMS_P1;PMS_P2;Temp;Humidity;BMP_temperature;BMP_pressure;BME280_temperature;BME280_humidity;BME280_pressure;Samples;Min_cycle;Max_cycle;Signal;HPM_P1;HPM_P2
2024/03/27 00:01:10;;;;;;;;;;;;;;;15.29;35.01;97424.86;67913;1276;1016381;-66
2024/03/27 00:04:21;;;;;;;;;;;;;;;15.42;34.73;97425.39;67898;1276;1016375;-66
2024/03/27 00:07:26;;;;;;;;;;;;;;;15.32;35.03;97425.64;67931;1276;1016057;-66
2024/03/27 00:10:30;;;;;;;;;;;;;;;15.27;35.00;97419.63;67835;1276;1016333;-63
2024/03/27 00:13:34;;;;;;;;;;;;;;;14.93;35.49;97421.02;67883;1276;1016432;-66
2024/03/27 00:16:38;;;;;;;;;;;;;;;14.64;35.81;97417.32;67920;1276;1015953;-66
2024/03/27 00:19:43;;;;;;;;;;;;;;;15.15;35.16;97411.90;67929;1276;1016190;-66
2024/03/27 00:22:45;;;;;;;;;;;;;;;15.14;35.09;97410.05;67951;1276;1016107;-66
2024/03/27 00:25:50;;;;;;;;;;;;;;;15.19;35.12;97407.44;67828;1276;1016393;-61
2024/03/27 00:28:54;;;;;;;;;;;;;;;15.06;35.04;97405.45;67977;1276;1016184;-66
2024/03/27 00:31:59;;;;;;;;;;;;;;;14.82;35.44;97405.20;67904;1276;1016421;-64
2024/03/27 00:35:03;;;;;;;;;;;;;;;14.57;36.04;97405.50;67914;1276;1016497;-66
2024/03/27 00:38:08;;;;;;;;;;;;;;;14.68;35.78;97403.95;67901;1276;1017969;-62
2024/03/27 00:41:12;;;;;;;;;;;;;;;14.87;35.27;97401.13;67813;1276;1018589;-66
2024/03/27 00:44:15;;;;;;;;;;;;;;;15.02;35.12;97392.30;67868;1276;1015927;-67
2024/03/27 00:47:19;;;;;;;;;;;;;;;14.88;35.19;97389.57;67933;1276;1016364;-61
2024/03/27 00:50:24;;;;;;;;;;;;;;;14.95;35.11;97390.17;67944;1276;1016228;-60
2024/03/27 00:53:28;;;;;;;;;;;;;;;14.91;35.18;97379.45;67974;1276;1018820;-67
2024/03/27 00:56:33;;;;;;;;;;;;;;;14.93;35.16;97378.52;67885;1276;1016528;-61
2024/03/27 00:59:37;;;;;;;;;;;;;;;15.02;34.90;97373.26;67939;1276;1016184;-67
2024/03/27 01:02:41;;;;;;;;;;;;;;;14.99;35.05;97372.36;67950;1276;1016800;-62
2024/03/27 01:05:46;;;;;;;;;;;;;;;14.95;34.97;97366.76;67966;1276;1016272;-66
2024/03/27 01:08:50;;;;;;;;;;;;;;;14.97;35.10;97364.29;67899;1276;1016043;-61
2024/03/27 01:11:58;;;;;;;;;;;;;;;14.94;35.10;97360.52;67961;1276;1016404;-66
2024/03/27 01:15:03;;;;;;;;;;;;;;;15.03;34.99;97353.59;67938;1276;1016162;-66
2024/03/27 01:18:08;;;;;;;;;;;;;;;14.95;35.06;97347.05;67929;1276;1016399;-66
2024/03/27 01:21:12;;;;;;;;;;;;;;;14.81;35.12;97350.21;67903;1276;1016348;-63
2024/03/27 01:24:17;;;;;;;;;;;;;;;14.73;35.09;97338.00;67946;1276;1017662;-61
2024/03/27 01:27:21;;;;;;;;;;;;;;;14.74;35.06;97340.20;67934;1276;1016388;-66
2024/03/27 01:30:26;;;;;;;;;;;;;;;14.71;35.21;97338.52;67967;1276;1016018;-66
2024/03/27 01:33:31;;;;;;;;;;;;;;;14.51;35.39;97333.48;67907;1276;1016436;-66
2024/03/27 01:36:35;;;;;;;;;;;;;;;14.58;35.25;97333.20;67939;1276;1016395;-62
2024/03/27 01:39:39;;;;;;;;;;;;;;;14.59;35.40;97334.07;67939;1276;1016423;-60
2024/03/27 01:42:44;;;;;;;;;;;;;;;14.59;35.32;97330.03;67995;1276;1016500;-66
2024/03/27 01:45:49;;;;;;;;;;;;;;;14.39;35.63;97325.21;67847;1276;1019009;-67
2024/03/27 01:48:54;;;;;;;;;;;;;;;14.40;35.51;97320.35;67894;1276;1015886;-66
2024/03/27 01:51:58;;;;;;;;;;;;;;;14.66;35.14;97309.96;67966;1276;1017155;-65
2024/03/27 01:55:02;;;;;;;;;;;;;;;14.70;35.10;97308.00;67939;1276;1016160;-60
2024/03/27 01:58:07;;;;;;;;;;;;;;;14.55;35.26;97299.12;67959;1276;1016129;-67
2024/03/27 02:01:12;;;;;;;;;;;;;;;14.55;35.14;97298.85;67866;1276;1016219;-66
2024/03/27 02:04:17;;;;;;;;;;;;;;;14.56;35.21;97305.94;67990;1276;1016224;-66
2024/03/27 02:07:21;;;;;;;;;;;;;;;14.44;35.52;97305.55;67875;1276;1016505;-66
2024/03/27 02:10:25;;;;;;;;;;;;;;;14.47;35.32;97306.63;67862;1276;1016209;-66
2024/03/27 02:13:28;;;;;;;;;;;;;;;14.53;35.34;97306.05;68013;1276;1016972;-66
2024/03/27 02:16:31;;;;;;;;;;;;;;;14.54;35.25;97299.06;67949;1276;1016262;-66
2024/03/27 02:19:35;;;;;;;;;;;;;;;14.53;35.36;97293.73;67836;1276;1016181;-61
2024/03/27 02:22:40;;;;;;;;;;;;;;;14.53;35.21;97288.67;67841;1276;1016056;-61
2024/03/27 02:25:45;;;;;;;;;;;;;;;14.51;35.32;97291.33;67961;1276;1016444;-66
2024/03/27 02:28:49;;;;;;;;;;;;;;;14.44;35.50;97285.65;67942;1276;1018849;-66
2024/03/27 02:31:54;;;;;;;;;;;;;;;14.35;35.68;97280.05;67958;1276;1016447;-66
2024/03/27 02:34:58;;;;;;;;;;;;;;;14.19;35.84;97271.11;67971;1276;1016101;-67
2024/03/27 02:38:01;;;;;;;;;;;;;;;14.28;35.75;97263.02;68007;1276;1018490;-60
2024/03/27 02:41:06;;;;;;;;;;;;;;;14.26;35.80;97257.26;67967;1276;1016081;-66
2024/03/27 02:44:11;;;;;;;;;;;;;;;14.32;35.65;97256.49;67976;1276;1016507;-61
2024/03/27 02:47:15;;;;;;;;;;;;;;;14.27;35.90;97251.16;67828;1276;1016219;-66
2024/03/27 02:50:21;;;;;;;;;;;;;;;14.29;35.71;97248.54;67985;1276;1016416;-66
2024/03/27 02:53:27;;;;;;;;;;;;;;;14.24;35.84;97242.09;67944;1276;1016200;-66
2024/03/27 02:56:32;;;;;;;;;;;;;;;14.14;36.00;97239.27;67981;1276;1016764;-66
2024/03/27 02:59:34;;;;;;;;;;;;;;;14.27;35.73;97232.70;67984;1276;1016158;-66
2024/03/27 03:02:38;;;;;;;;;;;;;;;14.22;35.94;97231.81;67974;1276;1016336;-66
2024/03/27 03:05:42;;;;;;;;;;;;;;;14.22;36.00;97230.56;67966;1276;1018231;-67
2024/03/27 03:08:48;;;;;;;;;;;;;;;14.27;36.02;97228.16;67909;1276;1016152;-67
2024/03/27 03:11:52;;;;;;;;;;;;;;;14.33;35.86;97224.73;67855;1276;1015969;-63
2024/03/27 03:14:57;;;;;;;;;;;;;;;14.27;35.80;97220.53;67858;1276;1015884;-66
2024/03/27 03:18:01;;;;;;;;;;;;;;;14.16;36.01;97221.00;67985;1276;1016530;-62
2024/03/27 03:21:05;;;;;;;;;;;;;;;14.29;35.72;97217.02;68001;1276;1016307;-66
2024/03/27 03:24:11;;;;;;;;;;;;;;;14.31;35.77;97210.46;67909;1276;1016671;-63
2024/03/27 03:27:16;;;;;;;;;;;;;;;14.13;36.09;97202.48;68006;1276;1016220;-66
2024/03/27 03:30:21;;;;;;;;;;;;;;;14.18;36.03;97196.35;67946;1276;1016480;-66
2024/03/27 03:33:26;;;;;;;;;;;;;;;14.30;35.70;97188.58;67949;1276;1016175;-66
2024/03/27 03:36:30;;;;;;;;;;;;;;;14.30;35.73;97180.04;67948;1276;1016021;-60
2024/03/27 03:39:36;;;;;;;;;;;;;;;14.28;35.71;97176.14;68012;1276;1016227;-63
2024/03/27 03:42:41;;;;;;;;;;;;;;;13.88;36.44;97173.49;67978;1276;1016446;-62
2024/03/27 03:45:44;;;;;;;;;;;;;;;13.86;36.48;97173.70;67944;1276;1016450;-66
2024/03/27 03:48:49;;;;;;;;;;;;;;;13.89;36.40;97170.64;67984;1276;1016632;-66
2024/03/27 03:51:53;;;;;;;;;;;;;;;13.80;36.52;97165.34;67982;1276;1016368;-61
2024/03/27 03:54:58;;;;;;;;;;;;;;;13.84;36.36;97165.99;67938;1276;1016248;-61
2024/03/27 03:58:02;;;;;;;;;;;;;;;13.98;36.18;97175.84;67879;1276;1016399;-67
2024/03/27 04:01:07;;;;;;;;;;;;;;;14.24;35.78;97182.25;67878;1276;1018093;-66
2024/03/27 04:04:12;;;;;;;;;;;;;;;14.25;35.68;97183.02;67983;1276;1018695;-64
2024/03/27 04:07:15;;;;;;;;;;;;;;;14.13;35.94;97182.05;67970;1276;1016592;-66
2024/03/27 04:10:18;;;;;;;;;;;;;;;14.01;36.10;97185.05;67947;1276;1016308;-66
2024/03/27 04:13:23;;;;;;;;;;;;;;;14.12;36.10;97176.94;67963;1276;1016273;-61
2024/03/27 04:16:27;;;;;;;;;;;;;;;13.93;36.28;97172.16;68013;1274;1016951;-67
2024/03/27 04:19:32;;;;;;;;;;;;;;;13.86;36.29;97169.34;67953;1276;1016439;-61
2024/03/27 04:22:37;;;;;;;;;;;;;;;14.06;36.03;97169.23;67955;1276;1016281;-67
2024/03/27 04:25:41;;;;;;;;;;;;;;;14.24;35.83;97165.10;67994;1276;1016740;-64
2024/03/27 04:28:45;;;;;;;;;;;;;;;14.49;35.46;97163.30;68017;1276;1016313;-66
2024/03/27 04:31:48;;;;;;;;;;;;;;;14.58;35.22;97157.05;67995;1276;1016385;-66
2024/03/27 04:34:53;;;;;;;;;;;;;;;14.52;35.32;97155.94;67950;1276;1016962;-62
2024/03/27 04:37:57;;;;;;;;;;;;;;;14.41;35.33;97153.91;67956;1276;1016291;-66
2024/03/27 04:41:07;;;;;;;;;;;;;;;14.31;35.66;97153.02;67859;1276;1016795;-64
2024/03/27 04:44:13;;;;;;;;;;;;;;;14.43;35.54;97154.58;67865;1276;1016764;-61
2024/03/27 04:47:17;;;;;;;;;;;;;;;14.47;35.37;97144.31;67973;1276;1016412;-66
2024/03/27 04:50:21;;;;;;;;;;;;;;;14.53;35.44;97141.89;67932;1276;1016216;-61
2024/03/27 04:53:24;;;;;;;;;;;;;;;14.55;35.31;97138.56;68008;1276;1016134;-61
2024/03/27 04:56:29;;;;;;;;;;;;;;;14.50;35.42;97135.77;67948;1276;1016426;-66
2024/03/27 04:59:35;;;;;;;;;;;;;;;14.16;35.97;97136.59;68007;1276;1016254;-66
2024/03/27 05:02:40;;;;;;;;;;;;;;;14.15;35.94;97138.31;68010;1276;1016374;-66
2024/03/27 05:05:45;;;;;;;;;;;;;;;14.26;35.99;97140.34;67939;1276;1017293;-66
2024/03/27 05:08:49;;;;;;;;;;;;;;;14.34;35.79;97139.12;67994;1276;1018225;-66
2024/03/27 05:11:55;;;;;;;;;;;;;;;14.56;35.52;97143.10;67981;1276;1016380;-66
2024/03/27 05:15:00;;;;;;;;;;;;;;;14.53;35.56;97140.23;68009;1276;1016452;-67
2024/03/27 05:18:04;;;;;;;;;;;;;;;14.44;35.68;97143.27;68044;1276;1016145;-66
2024/03/27 05:21:09;;;;;;;;;;;;;;;14.49;35.62;97137.05;67971;1276;1016492;-66
2024/03/27 05:24:13;;;;;;;;;;;;;;;14.50;35.78;97142.22;67938;1276;1016442;-66
2024/03/27 05:27:19;;;;;;;;;;;;;;;14.58;35.52;97137.20;67965;1276;1016461;-66
2024/03/27 05:30:23;;;;;;;;;;;;;;;14.83;35.15;97138.14;67960;1276;1016512;-62
2024/03/27 05:33:28;;;;;;;;;;;;;;;14.95;35.16;97140.11;68009;1276;1016534;-66
2024/03/27 05:36:34;;;;;;;;;;;;;;;15.01;35.22;97141.05;67932;1276;1016150;-63
2024/03/27 05:39:39;;;;;;;;;;;;;;;15.01;35.01;97143.70;67955;1276;1015592;-61
2024/03/27 05:42:44;;;;;;;;;;;;;;;15.18;35.09;97138.13;68013;1276;1016423;-65
2024/03/27 05:45:52;;;;;;;;;;;;;;;15.14;35.10;97131.89;68018;1276;1018192;-65
2024/03/27 05:48:58;;;;;;;;;;;;;;;15.25;34.79;97123.35;67957;1276;1019363;-66
2024/03/27 05:52:03;;;;;;;;;;;;;;;15.41;34.91;97118.30;68006;1276;1015876;-64
2024/03/27 05:55:10;;;;;;;;;;;;;;;15.66;34.70;97118.61;68020;1276;1016769;-66
2024/03/27 05:58:15;;;;;;;;;;;;;;;15.85;34.56;97118.95;67995;1276;1016439;-65
2024/03/27 06:01:19;;;;;;;;;;;;;;;16.21;34.29;97127.81;65394;1276;6398113;-66
2024/03/27 06:04:23;;;;;;;;;;;;;;;16.43;33.98;97123.90;67900;1276;1015926;-62
2024/03/27 06:07:28;;;;;;;;;;;;;;;16.35;33.81;97123.08;67964;1276;1016045;-65
2024/03/27 06:10:32;;;;;;;;;;;;;;;16.35;33.83;97120.85;67978;1276;1016472;-64
2024/03/27 06:13:36;;;;;;;;;;;;;;;16.43;33.91;97119.86;67972;1276;1016763;-66
2024/03/27 06:16:41;;;;;;;;;;;;;;;16.71;33.69;97117.59;68015;1276;1017720;-66
2024/03/27 06:19:45;;;;;;;;;;;;;;;16.96;33.20;97115.99;68023;1276;1016372;-61
2024/03/27 06:22:50;;;;;;;;;;;;;;;17.12;33.30;97114.54;67968;1276;1016273;-66
2024/03/27 06:25:55;;;;;;;;;;;;;;;17.23;33.10;97112.89;68004;1276;1016185;-65
2024/03/27 06:29:00;;;;;;;;;;;;;;;17.35;33.09;97117.64;67976;1276;1016490;-66
2024/03/27 06:32:06;;;;;;;;;;;;;;;17.44;32.88;97112.29;67974;1276;1016909;-65
2024/03/27 06:35:12;;;;;;;;;;;;;;;17.74;32.70;97113.41;67957;1276;1016534;-63
2024/03/27 06:38:17;;;;;;;;;;;;;;;17.85;32.73;97114.93;68018;1276;1016488;-65
2024/03/27 06:41:22;;;;;;;;;;;;;;;18.02;32.58;97111.23;68009;1276;1016359;-66
2024/03/27 06:44:26;;;;;;;;;;;;;;;18.28;32.18;97110.45;67967;1276;1016437;-64
2024/03/27 06:47:29;;;;;;;;;;;;;;;18.50;31.98;97113.05;67982;1276;1016446;-66
2024/03/27 06:50:33;;;;;;;;;;;;;;;18.82;31.69;97116.92;67973;1276;1016381;-63
2024/03/27 06:53:38;;;;;;;;;;;;;;;18.95;31.71;97114.16;67968;1276;1016270;-66
2024/03/27 06:56:42;;;;;;;;;;;;;;;19.17;31.45;97113.98;67975;1276;1015814;-64
2024/03/27 06:59:46;;;;;;;;;;;;;;;19.28;31.42;97111.40;67981;1276;1017734;-61
2024/03/27 07:02:51;;;;;;;;;;;;;;;19.34;31.03;97110.48;67906;1276;1016509;-64
2024/03/27 07:05:55;;;;;;;;;;;;;;;19.53;31.09;97118.90;68004;1276;1016430;-66
2024/03/27 07:08:58;;;;;;;;;;;;;;;19.65;31.14;97114.09;67976;1276;1017204;-66
2024/03/27 07:12:02;;;;;;;;;;;;;;;20.10;30.20;97112.64;67979;1276;1016466;-65
2024/03/27 07:15:07;;;;;;;;;;;;;;;20.24;30.17;97113.23;68031;1276;1016536;-65
2024/03/27 07:18:12;;;;;;;;;;;;;;;20.56;30.31;97110.95;67969;1276;1016458;-64
2024/03/27 07:21:16;;;;;;;;;;;;;;;20.80;30.24;97102.70;67989;1276;1016798;-65
2024/03/27 07:24:21;;;;;;;;;;;;;;;20.94;29.92;97097.80;67980;1276;1016458;-66
2024/03/27 07:27:26;;;;;;;;;;;;;;;20.73;29.58;97095.25;67891;1276;1016353;-63
2024/03/27 07:30:30;;;;;;;;;;;;;;;20.76;29.88;97094.20;67990;1276;1016634;-66
2024/03/27 07:33:37;;;;;;;;;;;;;;;20.82;29.95;97097.30;67968;1276;1016429;-66
2024/03/27 07:36:43;;;;;;;;;;;;;;;21.21;30.16;97096.82;67962;1276;1015640;-63
2024/03/27 07:39:47;;;;;;;;;;;;;;;21.63;29.98;97100.67;68005;1276;1015946;-65
2024/03/27 07:42:51;;;;;;;;;;;;;;;22.10;29.91;97103.81;68030;1276;1015982;-62
2024/03/27 07:45:56;;;;;;;;;;;;;;;22.43;29.43;97103.73;67976;1276;1016349;-65
2024/03/27 07:49:01;;;;;;;;;;;;;;;22.12;29.61;97102.61;68003;1276;1016403;-65
2024/03/27 07:52:04;;;;;;;;;;;;;;;22.06;29.55;97097.02;67933;1276;1016308;-61
2024/03/27 07:55:09;;;;;;;;;;;;;;;22.23;29.19;97094.70;67890;1276;1016290;-66
2024/03/27 07:58:14;;;;;;;;;;;;;;;22.34;29.41;97099.61;67947;1276;1016473;-65
2024/03/27 08:01:18;;;;;;;;;;;;;;;22.76;29.01;97105.52;67996;1276;1016492;-63
2024/03/27 08:04:23;;;;;;;;;;;;;;;22.67;29.11;97102.39;68002;1276;1016505;-65
2024/03/27 08:07:28;;;;;;;;;;;;;;;22.83;28.78;97110.06;67982;1276;1016264;-65
2024/03/27 08:10:32;;;;;;;;;;;;;;;22.92;28.68;97104.63;68029;1276;1016613;-66
2024/03/27 08:13:36;;;;;;;;;;;;;;;23.23;28.24;97103.09;68019;1276;1016505;-65
2024/03/27 08:16:41;;;;;;;;;;;;;;;23.40;28.33;97088.52;67965;1276;1016481;-65
2024/03/27 08:19:48;;;;;;;;;;;;;;;23.45;27.81;97080.16;67997;1276;1016909;-65
2024/03/27 08:22:53;;;;;;;;;;;;;;;23.53;28.15;97084.77;67948;1276;1018462;-62
2024/03/27 08:25:58;;;;;;;;;;;;;;;23.60;28.03;97083.96;68005;1276;1016106;-65
2024/03/27 08:29:03;;;;;;;;;;;;;;;23.61;28.35;97092.39;67980;1276;1016810;-64
2024/03/27 08:32:07;;;;;;;;;;;;;;;23.89;28.38;97090.46;68022;1276;1016417;-65
2024/03/27 08:35:12;;;;;;;;;;;;;;;24.12;27.91;97078.66;68022;1276;1016720;-66
2024/03/27 08:38:16;;;;;;;;;;;;;;;24.37;27.37;97074.76;68018;1276;1017406;-66
2024/03/27 08:41:21;;;;;;;;;;;;;;;24.56;27.51;97072.46;67985;1276;1016495;-66
2024/03/27 08:44:25;;;;;;;;;;;;;;;24.82;27.39;97073.24;67970;1276;1016381;-65
2024/03/27 08:47:30;;;;;;;;;;;;;;;24.98;26.94;97071.83;68006;1276;1016371;-65
2024/03/27 08:50:34;;;;;;;;;;;;;;;25.32;27.05;97072.95;68003;1276;1016407;-65
2024/03/27 08:53:39;;;;;;;;;;;;;;;25.67;26.64;97071.44;67954;1276;1016145;-66
2024/03/27 08:56:44;;;;;;;;;;;;;;;25.66;26.66;97069.16;68019;1276;1016886;-62
2024/03/27 08:59:48;;;;;;;;;;;;;;;25.52;26.46;97073.45;67958;1276;1016165;-65
2024/03/27 09:02:51;;;;;;;;;;;;;;;25.67;26.78;97071.59;67983;1276;1016445;-64
2024/03/27 09:05:56;;;;;;;;;;;;;;;26.04;26.22;97070.55;68034;1276;1016461;-65
2024/03/27 09:09:04;;;;;;;;;;;;;;;26.25;26.25;97071.74;67974;1276;1016378;-65
2024/03/27 09:12:09;;;;;;;;;;;;;;;26.50;26.25;97065.21;67960;1276;1016389;-66
2024/03/27 09:15:14;;;;;;;;;;;;;;;26.57;25.95;97066.21;68004;1276;1016107;-63
2024/03/27 09:18:19;;;;;;;;;;;;;;;26.44;26.12;97067.99;67887;1276;1016488;-65
2024/03/27 09:21:23;;;;;;;;;;;;;;;26.56;26.20;97069.27;67902;1276;1016422;-62
2024/03/27 09:24:26;;;;;;;;;;;;;;;26.86;26.15;97068.82;68009;1276;1016382;-65
2024/03/27 09:27:31;;;;;;;;;;;;;;;27.00;25.85;97068.33;67974;1276;1016458;-62
2024/03/27 09:30:37;;;;;;;;;;;;;;;27.26;25.74;97069.19;68004;1276;1016423;-66
2024/03/27 09:33:41;;;;;;;;;;;;;;;27.30;25.62;97062.56;67955;1276;1016431;-65
2024/03/27 09:36:47;;;;;;;;;;;;;;;27.45;25.64;97067.91;67975;1276;1016097;-65
2024/03/27 09:39:51;;;;;;;;;;;;;;;27.49;25.87;97072.11;67981;1276;1016279;-62
2024/03/27 09:42:56;;;;;;;;;;;;;;;27.51;26.29;97073.39;68016;1276;1016491;-65
2024/03/27 09:45:58;;;;;;;;;;;;;;;27.86;25.54;97074.98;67999;1276;1016877;-65
2024/03/27 09:49:03;;;;;;;;;;;;;;;28.23;25.47;97071.26;67965;1276;1016430;-65
2024/03/27 09:52:07;;;;;;;;;;;;;;;28.27;25.20;97073.20;67840;1276;1016482;-66
2024/03/27 09:55:12;;;;;;;;;;;;;;;28.16;25.44;97071.05;67979;1276;1016200;-65
2024/03/27 09:58:18;;;;;;;;;;;;;;;28.10;25.42;97070.91;68008;1276;1016611;-65
2024/03/27 10:01:22;;;;;;;;;;;;;;;28.30;25.24;97065.52;68032;1276;1016526;-66
2024/03/27 10:04:26;;;;;;;;;;;;;;;28.27;24.95;97061.13;67984;1276;1016590;-65
2024/03/27 10:07:30;;;;;;;;;;;;;;;28.25;25.08;97056.19;67970;1276;1016514;-65
2024/03/27 10:10:35;;;;;;;;;;;;;;;28.18;25.01;97058.96;67976;1276;1016022;-64
2024/03/27 10:13:39;;;;;;;;;;;;;;;28.26;25.24;97058.95;67954;1276;1016221;-65
2024/03/27 10:16:42;;;;;;;;;;;;;;;28.36;25.42;97061.38;67989;1276;1016037;-66
2024/03/27 10:19:47;;;;;;;;;;;;;;;28.52;24.97;97057.27;67977;1276;1016424;-62
2024/03/27 10:22:51;;;;;;;;;;;;;;;28.72;24.89;97057.45;67952;1276;1015702;-66
2024/03/27 10:25:55;;;;;;;;;;;;;;;28.87;24.82;97056.85;67892;1276;1016405;-65
2024/03/27 10:29:00;;;;;;;;;;;;;;;28.83;24.64;97050.18;67988;1276;1016469;-65
2024/03/27 10:32:05;;;;;;;;;;;;;;;28.75;24.85;97046.37;67964;1276;1015716;-65
2024/03/27 10:35:08;;;;;;;;;;;;;;;28.86;24.78;97046.48;67982;1276;1016459;-65
2024/03/27 10:38:12;;;;;;;;;;;;;;;29.03;24.95;97042.96;67967;1276;1019455;-65
2024/03/27 10:41:18;;;;;;;;;;;;;;;29.08;24.80;97045.13;67978;1276;1016401;-65
2024/03/27 10:44:23;;;;;;;;;;;;;;;29.23;25.08;97049.10;68009;1274;1016475;-65
2024/03/27 10:47:28;;;;;;;;;;;;;;;29.34;24.91;97047.74;67989;1276;1016372;-65
2024/03/27 10:50:32;;;;;;;;;;;;;;;29.27;24.76;97044.88;68006;1276;1016358;-65
2024/03/27 10:53:36;;;;;;;;;;;;;;;29.12;24.98;97043.27;67967;1276;1016375;-65
2024/03/27 10:56:39;;;;;;;;;;;;;;;29.02;25.01;97045.19;67970;1276;1018496;-65
2024/03/27 10:59:43;;;;;;;;;;;;;;;29.24;24.98;97042.90;67981;1276;1016489;-66
2024/03/27 11:02:47;;;;;;;;;;;;;;;29.51;25.18;97045.39;67973;1276;1016328;-65
2024/03/27 11:05:52;;;;;;;;;;;;;;;29.60;25.09;97039.28;62117;1275;2015555;-65
2024/03/27 11:08:58;;;;;;;;;;;;;;;29.77;25.11;97036.38;49206;1276;2016161;-65
2024/03/27 11:12:04;;;;;;;;;;;;;;;29.89;24.84;97031.11;53007;1276;2015896;-62
2024/03/27 11:15:09;;;;;;;;;;;;;;;29.80;24.85;97028.09;49968;1276;2016287;-65
2024/03/27 11:18:13;;;;;;;;;;;;;;;29.72;24.47;97034.40;51506;1276;2016414;-65
2024/03/27 11:21:19;;;;;;;;;;;;;;;29.69;24.78;97041.40;52999;1276;2016154;-66
2024/03/27 11:24:24;;;;;;;;;;;;;;;29.81;24.74;97040.98;50611;1276;2016543;-64
2024/03/27 11:27:29;;;;;;;;;;;;;;;30.06;24.89;97037.80;49931;1276;2016156;-66
2024/03/27 11:30:34;;;;;;;;;;;;;;;30.22;25.24;97026.67;50705;1276;2016566;-63
2024/03/27 11:33:41;;;;;;;;;;;;;;;30.29;24.96;97024.77;49186;1276;2016613;-62
2024/03/27 11:36:46;;;;;;;;;;;;;;;30.31;25.17;97023.69;51480;1276;2016054;-65
2024/03/27 11:39:50;;;;;;;;;;;;;;;30.36;25.20;97027.32;50719;1276;2016311;-66
2024/03/27 11:42:55;;;;;;;;;;;;;;;30.38;25.01;97020.25;52121;1275;2014887;-64
2024/03/27 11:46:00;;;;;;;;;;;;;;;30.33;25.32;97016.55;51329;1276;2015924;-63
2024/03/27 11:49:05;;;;;;;;;;;;;;;29.93;25.75;97016.20;52220;1276;2016398;-63
2024/03/27 11:52:11;;;;;;;;;;;;;;;30.27;25.30;97015.27;50702;1276;2015844;-65
2024/03/27 11:55:17;;;;;;;;;;;;;;;30.55;25.04;97009.77;52099;1276;2015494;-62
2024/03/27 11:58:20;;;;;;;;;;;;;;;30.66;25.29;97014.06;49029;1276;2016101;-65
2024/03/27 12:01:24;;;;;;;;;;;;;;;30.68;25.68;97009.96;53558;1276;2016218;-66
2024/03/27 12:04:27;;;;;;;;;;;;;;;31.09;25.18;97000.06;51340;1276;2016456;-65
2024/03/27 12:07:33;;;;;;;;;;;;;;;31.17;24.89;97002.18;50568;1276;2016089;-66
2024/03/27 12:10:38;;;;;;;;;;;;;;;30.70;24.95;97005.30;50720;1276;2016202;-66
2024/03/27 12:13:44;;;;;;;;;;;;;;;31.01;25.28;96995.88;49958;1276;2016210;-66
2024/03/27 12:16:50;;;;;;;;;;;;;;;31.30;24.90;96994.87;52858;1276;2015892;-65
2024/03/27 12:19:54;;;;;;;;;;;;;;;31.09;24.52;96990.82;67858;1276;1016214;-62
2024/03/27 12:22:57;;;;;;;;;;;;;;;31.06;24.87;96996.80;67875;1276;1016350;-65
2024/03/27 12:26:01;;;;;;;;;;;;;;;31.25;24.60;96990.64;67927;1276;1016428;-65
2024/03/27 12:29:07;;;;;;;;;;;;;;;31.27;25.11;96985.39;67932;1276;1016211;-65
2024/03/27 12:32:12;;;;;;;;;;;;;;;31.45;24.32;96984.66;67992;1276;1016462;-65
2024/03/27 12:35:17;;;;;;;;;;;;;;;31.36;24.78;96982.34;67948;1276;1016322;-65
2024/03/27 12:38:22;;;;;;;;;;;;;;;31.38;24.75;96978.98;67986;1276;1016450;-66
2024/03/27 12:41:26;;;;;;;;;;;;;;;31.36;24.84;96980.71;67952;1276;1016620;-62
2024/03/27 12:44:31;;;;;;;;;;;;;;;31.48;24.49;96981.51;67958;1276;1017978;-66
2024/03/27 12:47:35;;;;;;;;;;;;;;;31.44;24.59;96970.95;67945;1276;1016469;-64
2024/03/27 12:50:40;;;;;;;;;;;;;;;31.63;24.96;96969.20;67999;1276;1016356;-65
2024/03/27 12:53:45;;;;;;;;;;;;;;;31.65;25.46;96966.48;67927;1276;1016330;-63
2024/03/27 12:56:50;;;;;;;;;;;;;;;32.02;25.48;96967.36;67978;1276;1016676;-65
2024/03/27 12:59:54;;;;;;;;;;;;;;;31.71;25.39;96963.77;67982;1276;1016234;-62
2024/03/27 13:03:01;;;;;;;;;;;;;;;31.64;24.55;96965.09;67949;1276;1016491;-62
2024/03/27 13:06:06;;;;;;;;;;;;;;;31.48;24.32;96957.52;67955;1276;1016297;-62
2024/03/27 13:09:13;;;;;;;;;;;;;;;31.54;24.41;96958.34;67975;1276;1018031;-62
2024/03/27 13:12:18;;;;;;;;;;;;;;;31.75;24.07;96959.21;67952;1276;1016146;-65
2024/03/27 13:15:22;;;;;;;;;;;;;;;31.94;23.95;96957.40;67992;1276;1016453;-63
2024/03/27 13:18:27;;;;;;;;;;;;;;;31.98;23.38;96948.55;67939;1276;1016708;-62
2024/03/27 13:21:32;;;;;;;;;;;;;;;31.62;23.83;96948.29;67978;1276;1016234;-65
2024/03/27 13:24:36;;;;;;;;;;;;;;;31.78;23.72;96945.80;67976;1276;1016419;-64
2024/03/27 13:27:40;;;;;;;;;;;;;;;31.86;23.76;96938.24;67954;1276;1016338;-65
2024/03/27 13:30:44;;;;;;;;;;;;;;;31.79;23.79;96936.52;67952;1276;1016446;-66
2024/03/27 13:33:48;;;;;;;;;;;;;;;31.69;23.92;96939.65;67983;1276;1016374;-64
2024/03/27 13:36:53;;;;;;;;;;;;;;;31.79;23.91;96937.73;67953;1276;1016474;-63
2024/03/27 13:39:59;;;;;;;;;;;;;;;32.01;23.54;96934.71;67944;1276;1016488;-65
2024/03/27 13:43:03;;;;;;;;;;;;;;;32.01;23.26;96925.44;67971;1276;1016406;-62
2024/03/27 13:46:09;;;;;;;;;;;;;;;31.92;23.37;96923.10;67967;1276;1016671;-62
2024/03/27 13:49:14;;;;;;;;;;;;;;;31.58;23.46;96909.77;67929;1276;1016388;-66
2024/03/27 13:52:18;;;;;;;;;;;;;;;31.41;23.74;96905.80;67962;1276;1016167;-63
2024/03/27 13:55:21;;;;;;;;;;;;;;;31.70;23.21;96906.42;67893;1276;1015899;-66
2024/03/27 13:58:25;;;;;;;;;;;;;;;30.99;23.50;96907.80;67868;1276;1015649;-65
2024/03/27 14:01:30;;;;;;;;;;;;;;;30.48;23.98;96911.46;67913;1276;1017435;-65
2024/03/27 14:04:34;;;;;;;;;;;;;;;30.30;24.41;96903.58;67966;1276;1017415;-66
2024/03/27 14:07:38;;;;;;;;;;;;;;;30.65;24.21;96902.77;67978;1276;1016405;-63
2024/03/27 14:10:42;;;;;;;;;;;;;;;30.74;24.09;96902.13;67970;1276;1016078;-66
2024/03/27 14:13:47;;;;;;;;;;;;;;;31.17;24.24;96897.13;67970;1276;1018177;-66
2024/03/27 14:16:50;;;;;;;;;;;;;;;31.29;23.84;96888.61;67918;1276;1016375;-62
2024/03/27 14:19:55;;;;;;;;;;;;;;;31.06;23.78;96882.57;67955;1276;1016381;-65
2024/03/27 14:22:59;;;;;;;;;;;;;;;30.87;24.01;96880.00;67979;1276;1016263;-65
2024/03/27 14:26:03;;;;;;;;;;;;;;;31.00;23.82;96876.52;67957;1276;1016955;-66
2024/03/27 14:29:06;;;;;;;;;;;;;;;31.21;23.67;96877.91;67900;1276;1016534;-64
2024/03/27 14:32:10;;;;;;;;;;;;;;;31.11;23.74;96872.67;67959;1276;1019011;-66
2024/03/27 14:35:14;;;;;;;;;;;;;;;31.23;23.93;96870.92;67947;1276;1016377;-66
2024/03/27 14:38:19;;;;;;;;;;;;;;;30.93;23.96;96861.96;67925;1276;1016851;-66
2024/03/27 14:41:25;;;;;;;;;;;;;;;30.84;24.21;96857.00;67960;1276;1016365;-65
2024/03/27 14:44:30;;;;;;;;;;;;;;;31.12;24.07;96854.52;67928;1276;1016577;-65
2024/03/27 14:47:35;;;;;;;;;;;;;;;31.05;24.06;96859.63;67918;1276;1016488;-65
2024/03/27 14:50:40;;;;;;;;;;;;;;;31.04;24.18;96855.95;67913;1276;1016346;-65
2024/03/27 14:53:45;;;;;;;;;;;;;;;31.50;23.80;96858.30;67896;1276;1016497;-66
2024/03/27 14:56:49;;;;;;;;;;;;;;;31.47;23.92;96860.39;67992;1276;1015969;-65
2024/03/27 14:59:54;;;;;;;;;;;;;;;31.53;23.73;96858.70;67959;1276;1016882;-62
2024/03/27 15:02:59;;;;;;;;;;;;;;;31.64;23.67;96857.64;67930;1276;1016444;-65
2024/03/27 15:06:04;;;;;;;;;;;;;;;31.74;23.62;96861.13;67922;1276;1016151;-66
2024/03/27 15:09:08;;;;;;;;;;;;;;;31.47;23.59;96857.14;67924;1276;1016453;-62
2024/03/27 15:12:12;;;;;;;;;;;;;;;31.31;23.59;96849.84;67943;1276;1016597;-65
2024/03/27 15:15:17;;;;;;;;;;;;;;;31.14;23.55;96844.35;67959;1276;1016840;-63
2024/03/27 15:18:22;;;;;;;;;;;;;;;30.76;23.83;96842.92;67910;1276;1016132;-66
2024/03/27 15:21:26;;;;;;;;;;;;;;;30.59;23.92;96840.08;67919;1276;1018689;-64
2024/03/27 15:24:33;;;;;;;;;;;;;;;30.59;23.94;96846.63;67907;1276;1016821;-66
2024/03/27 15:27:38;;;;;;;;;;;;;;;30.01;24.50;96851.77;67903;1276;1015872;-65
2024/03/27 15:30:42;;;;;;;;;;;;;;;29.47;24.92;96851.15;67946;1276;1016359;-66
2024/03/27 15:33:48;;;;;;;;;;;;;;;29.30;25.15;96853.00;67924;1276;1016333;-64
2024/03/27 15:36:53;;;;;;;;;;;;;;;29.91;24.72;96857.38;67933;1276;1016297;-64